Time;durP1;ratioP1;P1;durP2;ratioP2;P2;SDS_P1;SDS_P2;PMS_P1;PMS_P2;Temp;Humidity;BMP_temperature;BMP_pressure;BME280_temperature;BME280_humidity;BME280_pressure;Samples;Min_cycle;Max_cycle;Signal;HPM_P1;HPM_P2
2022/02/24 00:00:05;;;;;;;18.85;3.67;;;9.90;99.90;;;;;;4992144;28;20183;-80
2022/02/24 00:02:31;;;;;;;11.30;3.58;;;10.00;99.90;;;;;;4990589;28;20166;-80
2022/02/24 00:04:57;;;;;;;6.28;2.75;;;10.10;99.90;;;;;;4990568;28;20207;-81
2022/02/24 00:07:22;;;;;;;10.27;2.90;;;10.10;99.90;;;;;;4992066;28;20182;-80
2022/02/24 00:09:48;;;;;;;15.60;3.22;;;10.30;99.90;;;;;;4990458;28;20173;-80
2022/02/24 00:12:13;;;;;;;9.80;3.55;;;10.30;99.90;;;;;;4992017;28;20256;-80
2022/02/24 00:14:39;;;;;;;14.30;2.78;;;10.10;99.90;;;;;;4992423;28;20230;-80
2022/02/24 00:17:07;;;;;;;10.98;3.00;;;10.20;99.90;;;;;;4990554;28;20173;-80
2022/02/24 00:19:32;;;;;;;8.45;3.55;;;10.30;99.90;;;;;;4991906;28;20161;-81
2022/02/24 00:21:58;;;;;;;6.50;2.78;;;10.30;99.90;;;;;;4992013;28;20500;-81
2022/02/24 00:24:24;;;;;;;12.10;3.88;;;10.30;99.90;;;;;;4991864;28;20521;-81
2022/02/24 00:26:49;;;;;;;12.55;3.90;;;10.30;99.90;;;;;;4990307;28;20197;-80
2022/02/24 00:29:17;;;;;;;15.00;3.60;;;10.10;99.90;;;;;;4990403;28;20166;-82
2022/02/24 00:31:43;;;;;;;10.00;3.17;;;10.00;99.90;;;;;;4992044;28;20193;-81
2022/02/24 00:34:09;;;;;;;21.80;3.67;;;10.00;99.90;;;;;;4990766;28;20185;-82
2022/02/24 00:36:34;;;;;;;8.50;2.65;;;10.00;99.90;;;;;;4991816;28;20180;-81
2022/02/24 00:39:00;;;;;;;17.00;3.20;;;10.00;99.90;;;;;;4990400;28;20265;-81
2022/02/24 00:41:26;;;;;;;16.15;3.15;;;10.00;99.90;;;;;;4991519;28;20173;-81
2022/02/24 00:43:51;;;;;;;10.35;3.03;;;9.90;99.90;;;;;;4991612;28;20219;-81
2022/02/24 00:46:17;;;;;;;8.32;3.15;;;10.00;99.90;;;;;;4990608;28;20684;-80
2022/02/24 00:48:42;;;;;;;13.50;4.15;;;10.10;99.90;;;;;;4990240;28;20173;-81
2022/02/24 00:51:08;;;;;;;18.95;3.35;;;10.00;99.90;;;;;;4990180;28;20176;-80
2022/02/24 00:53:34;;;;;;;8.70;3.58;;;9.90;99.90;;;;;;4991314;28;20161;-81
2022/02/24 00:55:59;;;;;;;6.75;2.70;;;9.70;99.90;;;;;;4991476;28;20264;-81
2022/02/24 00:58:26;;;;;;;11.27;2.95;;;9.70;99.90;;;;;;4989894;28;20162;-81
2022/02/24 01:00:54;;;;;;;17.13;3.40;;;9.90;99.90;;;;;;4989871;28;20252;-81
2022/02/24 01:03:21;;;;;;;10.82;3.42;;;9.90;99.90;;;;;;4990359;28;20176;-81
2022/02/24 01:05:47;;;;;;;14.60;3.08;;;9.80;99.90;;;;;;4991204;28;20217;-80
2022/02/24 01:08:14;;;;;;;5.30;2.72;;;9.70;99.90;;;;;;4990013;28;20242;-81
2022/02/24 01:10:39;;;;;;;6.80;2.30;;;9.70;99.90;;;;;;4989975;28;20180;-81
2022/02/24 01:13:05;;;;;;;11.73;2.88;;;9.70;99.90;;;;;;4990057;28;20169;-80
2022/02/24 01:15:31;;;;;;;13.02;2.83;;;9.60;99.90;;;;;;4990050;28;20201;-80
2022/02/24 01:17:56;;;;;;;5.25;2.90;;;9.80;99.90;;;;;;4989943;28;20176;-81
2022/02/24 01:20:22;;;;;;;4.47;2.30;;;9.70;99.90;;;;;;4990130;28;20181;-80
2022/02/24 01:22:48;;;;;;;12.23;3.10;;;9.70;99.90;;;;;;4991188;28;20192;-80
2022/02/24 01:25:14;;;;;;;9.02;2.72;;;9.70;99.90;;;;;;4991028;28;20216;-81
2022/02/24 01:27:42;;;;;;;12.10;2.97;;;9.70;99.90;;;;;;4993899;28;20245;-80
2022/02/24 01:30:08;;;;;;;10.45;2.50;;;9.80;99.90;;;;;;5005354;28;20622;-80
2022/02/24 01:32:33;;;;;;;10.18;2.80;;;9.70;99.90;;;;;;5005603;28;20192;-81
2022/02/24 01:35:01;;;;;;;11.50;3.97;;;9.60;99.90;;;;;;5005190;28;20261;-81
2022/02/24 01:37:26;;;;;;;10.52;2.80;;;9.60;99.90;;;;;;4995357;28;20246;-80
2022/02/24 01:39:52;;;;;;;9.02;3.42;;;9.60;99.90;;;;;;4990681;28;20566;-81
2022/02/24 01:42:17;;;;;;;9.05;2.80;;;9.60;99.90;;;;;;4991143;28;20200;-89
2022/02/24 01:44:47;;;;;;;16.98;3.22;;;9.70;99.90;;;;;;4996321;28;20207;-81
2022/02/24 01:47:13;;;;;;;6.63;3.00;;;9.80;99.90;;;;;;5018046;28;20185;-80
2022/02/24 01:49:40;;;;;;;9.73;2.20;;;9.90;99.90;;;;;;4990072;28;20157;-80
2022/02/24 01:52:08;;;;;;;6.78;2.67;;;9.70;99.90;;;;;;4989230;28;20652;-80
2022/02/24 01:54:34;;;;;;;8.90;2.65;;;9.60;99.90;;;;;;4990180;28;20185;-80
2022/02/24 01:57:01;;;;;;;8.55;2.58;;;9.70;99.90;;;;;;4990461;28;20173;-81
2022/02/24 01:59:27;;;;;;;9.77;2.40;;;9.70;99.90;;;;;;4992072;28;20534;-80
2022/02/24 02:01:53;;;;;;;9.75;2.65;;;9.80;99.90;;;;;;4992218;28;20173;-81
2022/02/24 02:04:19;;;;;;;12.13;2.22;;;9.70;99.90;;;;;;4992264;28;20197;-81
2022/02/24 02:06:45;;;;;;;8.35;2.72;;;9.70;99.90;;;;;;4993423;28;20204;-82
2022/02/24 02:09:11;;;;;;;7.13;2.72;;;9.70;99.90;;;;;;4992236;28;20722;-81
2022/02/24 02:11:37;;;;;;;4.38;1.98;;;9.90;99.90;;;;;;4992449;28;20173;-81
2022/02/24 02:14:03;;;;;;;7.20;2.63;;;10.00;99.90;;;;;;4992295;28;20208;-81
2022/02/24 02:16:29;;;;;;;8.88;2.38;;;10.00;99.90;;;;;;4992342;28;20181;-81
2022/02/24 02:18:55;;;;;;;3.65;1.63;;;10.00;99.90;;;;;;4993476;28;20173;-81
2022/02/24 02:21:21;;;;;;;9.20;2.60;;;9.80;99.90;;;;;;4992363;28;20174;-81
2022/02/24 02:23:46;;;;;;;7.85;2.50;;;9.80;99.90;;;;;;4991936;28;20222;-82
2022/02/24 02:26:12;;;;;;;9.55;2.50;;;9.80;99.90;;;;;;4991913;28;20256;-80
2022/02/24 02:28:38;;;;;;;9.10;3.13;;;9.90;99.90;;;;;;4992488;28;20616;-81
2022/02/24 02:31:04;;;;;;;6.53;2.10;;;9.80;99.90;;;;;;4993445;28;20166;-81
2022/02/24 02:33:30;;;;;;;15.13;2.78;;;9.70;99.90;;;;;;4991902;28;20173;-80
2022/02/24 02:35:56;;;;;;;8.43;2.25;;;9.60;99.90;;;;;;4992382;28;20182;-81
2022/02/24 02:38:21;;;;;;;11.48;2.28;;;9.70;99.90;;;;;;4993365;28;20186;-81
2022/02/24 02:40:47;;;;;;;5.25;2.40;;;9.80;99.90;;;;;;4992062;28;20169;-81
2022/02/24 02:43:13;;;;;;;7.85;2.30;;;9.90;99.90;;;;;;4991747;28;20526;-82
2022/02/24 02:45:39;;;;;;;6.45;2.58;;;9.80;99.90;;;;;;4992828;28;20546;-82
2022/02/24 02:48:06;;;;;;;6.80;2.35;;;9.80;99.90;;;;;;4991968;28;21014;-82
2022/02/24 02:50:32;;;;;;;12.45;3.22;;;9.90;99.90;;;;;;4993172;28;20658;-81
2022/02/24 02:53:01;;;;;;;7.13;2.13;;;10.00;99.90;;;;;;4992866;28;20173;-81
2022/02/24 02:55:27;;;;;;;9.15;2.40;;;10.00;99.90;;;;;;4992099;28;20211;-81
2022/02/24 02:57:52;;;;;;;12.52;2.70;;;9.80;99.90;;;;;;4992926;28;20165;-82
2022/02/24 03:00:18;;;;;;;10.30;3.05;;;9.90;99.90;;;;;;4991504;28;20630;-81
2022/02/24 03:02:44;;;;;;;4.70;1.70;;;9.90;99.90;;;;;;4991366;28;20242;-81
2022/02/24 03:05:10;;;;;;;11.32;2.72;;;9.90;99.90;;;;;;4991456;28;20284;-81
2022/02/24 03:07:36;;;;;;;8.68;2.15;;;9.80;99.90;;;;;;4992928;28;20177;-82
2022/02/24 03:10:03;;;;;;;7.38;1.88;;;9.90;99.90;;;;;;4990733;28;20181;-81
2022/02/24 03:12:29;;;;;;;15.27;3.28;;;9.80;99.90;;;;;;4990969;28;20180;-82
2022/02/24 03:14:55;;;;;;;11.27;3.38;;;9.90;99.90;;;;;;4991284;28;20197;-82
2022/02/24 03:17:22;;;;;;;10.48;2.55;;;9.80;99.90;;;;;;4990792;28;20264;-82
2022/02/24 03:19:47;;;;;;;11.45;2.75;;;9.70;99.90;;;;;;4991337;28;20176;-81
2022/02/24 03:22:13;;;;;;;11.30;2.60;;;9.60;99.90;;;;;;4992367;28;20173;-81
2022/02/24 03:24:39;;;;;;;8.73;2.58;;;9.60;99.90;;;;;;4990931;28;20207;-81
2022/02/24 03:27:05;;;;;;;9.63;3.00;;;9.60;99.90;;;;;;4992655;28;20283;-81
2022/02/24 03:29:32;;;;;;;10.80;2.58;;;9.50;99.90;;;;;;4992723;28;20204;-81
2022/02/24 03:32:00;;;;;;;14.60;3.53;;;9.40;99.90;;;;;;4991148;28;20625;-81
2022/02/24 03:34:25;;;;;;;14.45;2.92;;;9.50;99.90;;;;;;4990748;28;20204;-81
2022/02/24 03:36:51;;;;;;;9.80;2.60;;;9.40;99.90;;;;;;4991069;28;20169;-82
2022/02/24 03:39:17;;;;;;;7.15;2.13;;;9.40;99.90;;;;;;4992238;28;20161;-81
2022/02/24 03:41:43;;;;;;;17.48;3.47;;;9.50;99.90;;;;;;4992083;28;20256;-81
2022/02/24 03:44:10;;;;;;;9.30;2.88;;;9.40;99.90;;;;;;4992448;28;20212;-81
2022/02/24 03:46:36;;;;;;;12.55;3.00;;;9.50;99.90;;;;;;4990748;28;20209;-82
2022/02/24 03:49:01;;;;;;;3.80;2.05;;;9.60;99.90;;;;;;4992205;28;20572;-81
2022/02/24 03:51:27;;;;;;;12.93;2.72;;;9.50;99.90;;;;;;4990741;28;20180;-80
2022/02/24 03:53:53;;;;;;;14.00;2.42;;;9.50;99.90;;;;;;4990941;28;20240;-82
2022/02/24 03:56:18;;;;;;;5.80;1.75;;;9.50;99.90;;;;;;4992302;28;20638;-82
2022/02/24 03:58:45;;;;;;;11.05;2.13;;;9.40;99.90;;;;;;4990283;28;20173;-81
2022/02/24 04:01:12;;;;;;;10.27;2.25;;;9.30;99.90;;;;;;4989742;28;20660;-81
2022/02/24 04:03:37;;;;;;;9.02;2.72;;;9.30;99.90;;;;;;4991368;28;20177;-82
2022/02/24 04:06:03;;;;;;;9.00;2.38;;;9.30;99.90;;;;;;4991771;28;20205;-81
2022/02/24 04:08:29;;;;;;;8.18;2.13;;;9.20;99.90;;;;;;4990717;28;20347;-81
2022/02/24 04:10:55;;;;;;;7.15;2.40;;;9.10;99.90;;;;;;4990778;28;20532;-81
2022/02/24 04:13:21;;;;;;;10.63;2.63;;;9.10;99.90;;;;;;4991786;28;20180;-82
2022/02/24 04:15:47;;;;;;;4.40;2.30;;;9.10;99.90;;;;;;4991422;28;20193;-82
2022/02/24 04:18:13;;;;;;;12.45;2.13;;;9.30;99.90;;;;;;4991488;28;20173;-81
2022/02/24 04:20:39;;;;;;;9.05;2.22;;;9.30;99.90;;;;;;4990273;28;20230;-82
2022/02/24 04:23:05;;;;;;;9.40;2.70;;;9.20;99.90;;;;;;4990558;28;20173;-82
2022/02/24 04:25:30;;;;;;;8.38;2.08;;;9.10;99.90;;;;;;4990381;28;20245;-81
2022/02/24 04:27:56;;;;;;;13.07;2.83;;;9.00;99.90;;;;;;4990058;28;20201;-81
2022/02/24 04:30:22;;;;;;;8.38;2.40;;;9.10;99.90;;;;;;4989873;28;20173;-83
2022/02/24 04:32:48;;;;;;;8.35;2.20;;;9.20;99.90;;;;;;4991440;28;20169;-82
2022/02/24 04:35:14;;;;;;;5.15;2.15;;;9.00;99.90;;;;;;4990413;28;20193;-82
2022/02/24 04:37:40;;;;;;;4.88;1.45;;;8.90;99.90;;;;;;4990332;28;20181;-81
2022/02/24 04:40:08;;;;;;;9.98;1.95;;;8.70;99.90;;;;;;4991057;28;20173;-82
2022/02/24 04:42:34;;;;;;;5.43;2.28;;;8.80;99.90;;;;;;4989732;28;20268;-82
2022/02/24 04:45:00;;;;;;;9.57;1.98;;;8.90;99.90;;;;;;4990870;28;20284;-81
2022/02/24 04:47:27;;;;;;;2.63;1.48;;;8.80;99.90;;;;;;4990604;28;20652;-81
2022/02/24 04:49:54;;;;;;;7.20;2.05;;;8.70;99.90;;;;;;4991336;28;20172;-81
2022/02/24 04:52:19;;;;;;;5.93;1.95;;;8.70;99.90;;;;;;4990250;28;20177;-81
2022/02/24 04:54:46;;;;;;;7.32;1.52;;;8.60;99.90;;;;;;4990414;28;20197;-82
2022/02/24 04:57:12;;;;;;;3.40;1.88;;;8.80;99.90;;;;;;4991302;28;20169;-82
2022/02/24 04:59:37;;;;;;;8.80;2.05;;;8.90;99.90;;;;;;4991356;28;20299;-81
2022/02/24 05:02:03;;;;;;;10.30;1.98;;;8.80;99.90;;;;;;4989863;28;20165;-82
2022/02/24 05:04:29;;;;;;;10.40;2.38;;;8.70;99.90;;;;;;4990985;28;20550;-82
2022/02/24 05:06:54;;;;;;;9.48;1.83;;;8.80;99.90;;;;;;4991072;28;20173;-82
2022/02/24 05:09:20;;;;;;;8.77;1.98;;;8.80;99.90;;;;;;4991261;28;20244;-82
2022/02/24 05:11:46;;;;;;;8.65;2.75;;;8.60;99.90;;;;;;4989894;28;20569;-81
2022/02/24 05:14:11;;;;;;;6.72;1.35;;;8.60;99.90;;;;;;4990882;28;20193;-81
2022/02/24 05:16:37;;;;;;;7.10;1.30;;;8.60;99.90;;;;;;4989345;28;20276;-82
2022/02/24 05:19:03;;;;;;;4.28;1.40;;;8.60;99.90;;;;;;4989805;28;20697;-82
2022/02/24 05:21:28;;;;;;;5.57;1.88;;;8.60;99.90;;;;;;4991293;28;20244;-81
2022/02/24 05:23:54;;;;;;;4.20;1.25;;;8.50;99.90;;;;;;4990701;28;20185;-82
2022/02/24 05:26:20;;;;;;;4.78;1.48;;;8.50;99.90;;;;;;4989527;28;20208;-81
2022/02/24 05:28:46;;;;;;;3.88;1.65;;;8.40;99.90;;;;;;4990321;28;20216;-82
2022/02/24 05:31:11;;;;;;;7.30;2.30;;;8.50;99.90;;;;;;4988882;28;20630;-82
2022/02/24 05:33:37;;;;;;;10.52;2.08;;;8.40;99.90;;;;;;4988366;28;20169;-81
2022/02/24 05:36:04;;;;;;;15.70;2.28;;;8.40;99.90;;;;;;4990209;28;20162;-81
2022/02/24 05:38:29;;;;;;;8.50;1.98;;;8.20;99.90;;;;;;4988566;28;20173;-81
2022/02/24 05:40:55;;;;;;;10.20;2.33;;;8.40;99.90;;;;;;4990054;28;20682;-82
2022/02/24 05:43:21;;;;;;;4.03;1.88;;;8.40;99.90;;;;;;4989952;28;20180;-81
2022/02/24 05:45:46;;;;;;;9.18;2.38;;;8.30;99.90;;;;;;4989869;28;20221;-82
2022/02/24 05:48:12;;;;;;;12.95;2.67;;;8.30;99.90;;;;;;4989004;28;20165;-81
2022/02/24 05:50:40;;;;;;;9.32;2.35;;;8.30;99.90;;;;;;4994678;28;20177;-81
2022/02/24 05:53:06;;;;;;;8.70;2.17;;;8.40;99.90;;;;;;4994930;28;20174;-81
2022/02/24 05:55:33;;;;;;;10.45;2.50;;;8.50;99.90;;;;;;4990403;28;20207;-81
2022/02/24 05:57:59;;;;;;;5.80;2.45;;;8.40;99.90;;;;;;5004851;28;20199;-81
2022/02/24 06:00:25;;;;;;;9.13;2.70;;;8.50;99.90;;;;;;5006457;28;20185;-81
2022/02/24 06:02:52;;;;;;;8.73;2.47;;;8.40;99.90;;;;;;5004178;28;20161;-82
2022/02/24 06:05:18;;;;;;;6.93;2.00;;;8.30;99.90;;;;;;4981366;28;20700;-80
2022/02/24 06:07:44;;;;;;;11.40;2.60;;;8.30;99.90;;;;;;4994023;28;20260;-81
2022/02/24 06:10:11;;;;;;;11.27;2.05;;;8.40;99.90;;;;;;4993100;28;20165;-82
2022/02/24 06:12:37;;;;;;;4.32;2.20;;;8.40;99.90;;;;;;4991142;28;20724;-81
2022/02/24 06:15:04;;;;;;;12.07;2.55;;;8.40;99.90;;;;;;4995651;28;20217;-82
2022/02/24 06:17:30;;;;;;;10.35;1.95;;;8.40;99.90;;;;;;4992895;28;20169;-82
2022/02/24 06:19:55;;;;;;;5.75;2.20;;;8.50;99.90;;;;;;4994336;28;20169;-81
2022/02/24 06:22:22;;;;;;;9.02;1.58;;;8.50;99.90;;;;;;4991820;28;20638;-81
2022/02/24 06:24:48;;;;;;;5.68;1.60;;;8.30;99.90;;;;;;4992411;28;20197;-81
2022/02/24 06:27:14;;;;;;;7.43;1.73;;;8.40;99.90;;;;;;4994643;28;20539;-82
2022/02/24 06:29:40;;;;;;;5.97;2.20;;;8.40;99.90;;;;;;4992033;28;20170;-81
2022/02/24 06:32:06;;;;;;;4.43;1.50;;;8.50;99.90;;;;;;4996217;28;20538;-81
2022/02/24 06:34:32;;;;;;;6.32;2.22;;;8.30;99.90;;;;;;5011597;28;20181;-81
2022/02/24 06:36:58;;;;;;;11.27;2.22;;;8.40;99.90;;;;;;5002788;28;20527;-80
2022/02/24 06:39:24;;;;;;;10.75;2.25;;;8.10;99.90;;;;;;4993844;28;20612;-80
2022/02/24 06:41:49;;;;;;;6.57;2.17;;;8.10;99.90;;;;;;4995125;28;20193;-80
2022/02/24 06:44:18;;;;;;;12.65;1.75;;;8.30;99.90;;;;;;5004904;28;20200;-80
2022/02/24 06:46:48;;;;;;;3.85;1.77;;;8.30;99.90;;;;;;4996277;28;20213;-81
2022/02/24 06:49:15;;;;;;;11.50;2.05;;;8.10;99.90;;;;;;5010533;28;20165;-80
2022/02/24 06:51:41;;;;;;;4.95;2.55;;;8.20;99.90;;;;;;5003522;28;20181;-82
2022/02/24 06:54:06;;;;;;;7.30;1.88;;;8.10;99.90;;;;;;4991546;28;20204;-83
2022/02/24 06:56:32;;;;;;;7.07;2.20;;;8.10;99.90;;;;;;4991621;28;20226;-82
2022/02/24 06:58:58;;;;;;;8.30;2.53;;;8.10;99.90;;;;;;4992947;28;20196;-83
2022/02/24 07:01:23;;;;;;;8.88;2.60;;;8.20;99.90;;;;;;4991766;28;20173;-80
2022/02/24 07:03:49;;;;;;;9.40;2.47;;;8.30;99.90;;;;;;4992336;28;20221;-83
2022/02/24 07:06:15;;;;;;;6.68;2.25;;;8.30;99.90;;;;;;4992776;28;20280;-82
2022/02/24 07:08:40;;;;;;;12.68;2.70;;;8.30;99.90;;;;;;4992951;28;20752;-81
2022/02/24 07:11:06;;;;;;;15.35;2.35;;;8.30;99.90;;;;;;4993010;28;20181;-81
2022/02/24 07:13:31;;;;;;;12.15;2.25;;;8.40;99.90;;;;;;4992001;28;20259;-81
2022/02/24 07:15:57;;;;;;;4.82;1.77;;;8.30;99.90;;;;;;4992255;28;20525;-81
2022/02/24 07:18:23;;;;;;;7.32;2.30;;;8.40;99.90;;;;;;4991080;28;20176;-80
2022/02/24 07:20:48;;;;;;;13.50;2.55;;;8.40;99.90;;;;;;4991341;28;20188;-82
2022/02/24 07:23:14;;;;;;;12.15;2.67;;;8.50;99.90;;;;;;4992230;28;20169;-81
2022/02/24 07:25:40;;;;;;;8.88;2.85;;;8.50;99.90;;;;;;4990456;28;20307;-82
2022/02/24 07:28:07;;;;;;;16.88;3.13;;;8.50;99.90;;;;;;4991097;28;20256;-81
2022/02/24 07:30:35;;;;;;;11.43;2.20;;;8.50;99.90;;;;;;4992130;28;20526;-81
2022/02/24 07:33:00;;;;;;;7.75;2.78;;;8.60;99.90;;;;;;4991084;28;20226;-81
2022/02/24 07:35:26;;;;;;;6.25;2.22;;;8.60;99.90;;;;;;4990812;28;20197;-80
2022/02/24 07:37:51;;;;;;;15.57;2.90;;;8.70;99.90;;;;;;4992205;28;20222;-82
2022/02/24 07:40:17;;;;;;;10.30;2.45;;;8.80;99.90;;;;;;4991122;28;20245;-81
2022/02/24 07:42:43;;;;;;;10.18;2.03;;;9.00;99.90;;;;;;4991773;28;20272;-82
2022/02/24 07:45:09;;;;;;;8.38;2.20;;;9.00;99.90;;;;;;4990510;28;20229;-85
2022/02/24 07:47:35;;;;;;;9.45;2.25;;;9.00;99.90;;;;;;4990746;28;20703;-81
2022/02/24 07:50:00;;;;;;;7.95;2.20;;;9.10;99.90;;;;;;4990236;28;20265;-81
2022/02/24 07:52:26;;;;;;;5.40;1.95;;;9.10;99.90;;;;;;4991027;28;20204;-79
2022/02/24 07:54:52;;;;;;;5.35;2.08;;;9.10;99.90;;;;;;4990299;28;20193;-81
2022/02/24 07:57:17;;;;;;;5.15;1.73;;;9.00;99.90;;;;;;4991536;28;20169;-81
2022/02/24 07:59:43;;;;;;;17.05;2.42;;;9.00;99.90;;;;;;4990405;28;20177;-82
2022/02/24 08:02:09;;;;;;;226.70;22.27;;;9.10;99.90;;;;;;4992137;28;20633;-83
2022/02/24 08:04:39;;;;;;;36.53;4.53;;;9.00;99.90;;;;;;4999057;28;20185;-79
2022/02/24 08:07:12;;;;;;;4.25;1.35;;;9.10;99.90;;;;;;5000476;28;20177;-81
2022/02/24 08:09:43;;;;;;;10.90;2.05;;;9.00;99.90;;;;;;4994368;28;20180;-80
2022/02/24 08:14:56;;;;;;;6.07;1.95;;;9.10;99.90;;;;;;5013002;28;20294;-79
2022/02/24 08:17:22;;;;;;;13.95;2.42;;;9.00;99.90;;;;;;5002822;28;20177;-81
2022/02/24 08:19:48;;;;;;;22.40;2.92;;;9.10;99.90;;;;;;5002410;28;20176;-80
2022/02/24 08:22:14;;;;;;;9.02;2.53;;;9.30;99.90;;;;;;5003069;28;20150;-80
2022/02/24 08:24:39;;;;;;;13.02;2.55;;;9.40;99.90;;;;;;4994241;28;20241;-80
2022/02/24 08:27:05;;;;;;;14.70;2.47;;;9.60;99.90;;;;;;4992929;28;20178;-80
2022/02/24 08:29:30;;;;;;;4.65;1.27;;;9.60;99.90;;;;;;4992552;28;20625;-80
2022/02/24 08:31:56;;;;;;;7.70;2.15;;;9.60;99.90;;;;;;4995337;28;20178;-82
2022/02/24 08:34:23;;;;;;;7.00;2.28;;;9.70;99.90;;;;;;4993161;28;20204;-83
2022/02/24 08:36:51;;;;;;;3.10;1.30;;;9.50;99.90;;;;;;4990532;28;20173;-82
2022/02/24 08:39:20;;;;;;;10.50;2.30;;;9.50;99.90;;;;;;4991525;28;20194;-81
2022/02/24 08:41:46;;;;;;;16.70;2.38;;;9.50;99.90;;;;;;4989965;28;20238;-80
2022/02/24 08:44:12;;;;;;;6.65;1.98;;;9.60;99.90;;;;;;4991026;28;21016;-80
2022/02/24 08:46:37;;;;;;;8.80;2.03;;;9.60;99.90;;;;;;4990608;28;20556;-80
2022/02/24 08:49:03;;;;;;;8.82;2.03;;;9.70;99.90;;;;;;4989624;28;20218;-82
2022/02/24 08:51:29;;;;;;;9.40;1.73;;;9.80;99.90;;;;;;4991214;28;20252;-84
2022/02/24 08:53:54;;;;;;;7.93;1.65;;;9.80;99.90;;;;;;4989672;28;20254;-83
2022/02/24 08:56:20;;;;;;;6.00;2.35;;;9.90;99.90;;;;;;4991164;28;20161;-81
2022/02/24 08:58:46;;;;;;;10.68;2.42;;;9.90;99.90;;;;;;4989644;28;20238;-83
2022/02/24 09:01:11;;;;;;;8.73;1.90;;;9.80;99.90;;;;;;4993280;28;20212;-82
2022/02/24 09:03:37;;;;;;;10.75;1.65;;;9.60;99.90;;;;;;5006109;28;20170;-82
2022/02/24 09:06:02;;;;;;;12.60;2.72;;;9.70;99.90;;;;;;5005749;28;20215;-82
2022/02/24 09:08:28;;;;;;;76.40;5.72;;;9.70;99.90;;;;;;4991098;28;20165;-81
2022/02/24 09:10:54;;;;;;;32.55;3.83;;;9.80;99.90;;;;;;4989352;28;20526;-82
2022/02/24 09:13:19;;;;;;;6.20;1.90;;;9.80;99.90;;;;;;4989381;28;20169;-83
2022/02/24 09:15:45;;;;;;;17.20;2.03;;;9.80;99.90;;;;;;4988575;28;20193;-84
2022/02/24 09:18:10;;;;;;;9.00;2.03;;;9.80;99.90;;;;;;4990388;28;20219;-83
2022/02/24 09:20:40;;;;;;;9.60;1.75;;;9.70;99.90;;;;;;4989290;28;20181;-84
2022/02/24 09:23:06;;;;;;;15.65;1.63;;;9.90;99.90;;;;;;4989300;28;20173;-83
2022/02/24 09:25:47;;;;;;;6.45;1.90;;;9.80;99.90;;;;;;5069470;28;20685;-80
2022/02/24 09:28:14;;;;;;;4.95;1.48;;;10.00;99.90;;;;;;5070534;28;20641;-80
2022/02/24 09:30:40;;;;;;;10.55;1.52;;;10.10;99.90;;;;;;5068637;28;20233;-83
2022/02/24 09:33:05;;;;;;;6.05;1.35;;;10.20;99.90;;;;;;5068877;28;20181;-80
2022/02/24 09:35:31;;;;;;;4.05;1.90;;;10.30;99.90;;;;;;5069658;28;20198;-81
2022/02/24 09:37:57;;;;;;;12.77;1.77;;;10.30;99.90;;;;;;5069804;28;20170;-80
2022/02/24 09:40:25;;;;;;;6.30;1.60;;;10.30;99.90;;;;;;5069870;28;20635;-81
2022/02/24 09:42:51;;;;;;;12.18;1.73;;;10.20;99.90;;;;;;5068067;28;20224;-80
2022/02/24 09:45:17;;;;;;;10.93;2.08;;;10.30;99.90;;;;;;5069338;28;20217;-82
2022/02/24 09:47:43;;;;;;;7.97;2.28;;;10.30;99.90;;;;;;5068380;28;20190;-80
2022/02/24 09:50:10;;;;;;;6.13;1.30;;;10.00;99.90;;;;;;5069050;28;20167;-80
2022/02/24 09:52:36;;;;;;;8.57;1.60;;;9.80;99.90;;;;;;5068007;28;20232;-80
2022/02/24 09:55:02;;;;;;;8.63;1.80;;;9.70;99.90;;;;;;5069043;28;20210;-80
2022/02/24 09:57:28;;;;;;;4.53;1.45;;;9.70;99.90;;;;;;5068072;28;20178;-81
2022/02/24 09:59:53;;;;;;;3.65;1.38;;;9.70;99.90;;;;;;5069864;28;20171;-81
2022/02/24 10:02:20;;;;;;;3.95;1.45;;;9.70;99.90;;;;;;5069595;28;20166;-82
2022/02/24 10:05:12;;;;;;;10.80;1.70;;;9.90;99.90;;;;;;5067543;28;20217;-81
2022/02/24 10:07:40;;;;;;;9.35;1.48;;;9.90;99.90;;;;;;5068226;28;20560;-80
2022/02/24 10:10:25;;;;;;;11.35;1.98;;;9.90;99.90;;;;;;5069122;28;20558;-82
2022/02/24 10:13:09;;;;;;;10.35;1.60;;;10.10;99.90;;;;;;5068480;28;20513;-81
2022/02/24 10:15:56;;;;;;;8.13;1.88;;;10.10;99.90;;;;;;5067934;28;20194;-80
2022/02/24 10:18:26;;;;;;;4.63;1.48;;;10.20;99.90;;;;;;5069256;28;20253;-80
2022/02/24 10:20:55;;;;;;;8.93;1.95;;;10.10;99.90;;;;;;5087165;28;20158;-80
2022/02/24 10:23:31;;;;;;;3.85;1.40;;;10.20;99.90;;;;;;5087755;28;20159;-82
2022/02/24 10:26:01;;;;;;;13.95;1.48;;;10.30;99.90;;;;;;5089097;28;20178;-80
2022/02/24 10:28:30;;;;;;;5.07;1.30;;;10.40;99.90;;;;;;5078857;28;20222;-79
2022/02/24 10:30:56;;;;;;;11.45;1.70;;;10.40;99.90;;;;;;5067347;28;20540;-80
2022/02/24 10:33:29;;;;;;;7.22;1.33;;;10.40;99.90;;;;;;5067468;28;20603;-80
2022/02/24 10:36:14;;;;;;;8.10;1.70;;;10.40;99.90;;;;;;5062254;28;20191;-81
2022/02/24 10:38:40;;;;;;;5.55;1.10;;;10.40;99.90;;;;;;5055766;28;20163;-81
2022/02/24 10:41:06;;;;;;;6.78;1.50;;;10.40;99.90;;;;;;5054138;28;20175;-81
2022/02/24 10:43:36;;;;;;;5.53;1.70;;;10.50;99.90;;;;;;5053899;28;20171;-82
2022/02/24 10:46:07;;;;;;;2.83;1.30;;;10.50;99.90;;;;;;5053896;28;20224;-81
2022/02/24 10:48:57;;;;;;;58.40;4.85;;;10.60;99.90;;;;;;5055285;28;20168;-82
2022/02/24 10:51:29;;;;;;;10.38;2.72;;;10.60;99.90;;;;;;5053828;28;20167;-82
2022/02/24 10:54:09;;;;;;;7.13;1.73;;;10.70;99.90;;;;;;5053837;28;20339;-82
2022/02/24 10:56:38;;;;;;;5.13;1.48;;;10.60;99.90;;;;;;5055150;28;20181;-82
2022/02/24 10:59:04;;;;;;;8.10;1.70;;;10.60;99.90;;;;;;5055197;28;20572;-87
2022/02/24 11:01:30;;;;;;;6.13;1.73;;;10.70;99.90;;;;;;5053716;28;20156;-81
2022/02/24 11:04:04;;;;;;;8.10;1.48;;;10.70;99.90;;;;;;5053037;28;20233;-82
2022/02/24 11:06:33;;;;;;;9.43;2.17;;;10.70;99.90;;;;;;5053587;28;20176;-82
2022/02/24 11:09:00;;;;;;;14.88;1.98;;;10.80;99.90;;;;;;5054188;28;20163;-83
2022/02/24 11:11:28;;;;;;;5.15;1.10;;;10.90;99.90;;;;;;5054228;28;20184;-82
2022/02/24 11:13:55;;;;;;;8.43;1.63;;;11.10;99.90;;;;;;5054356;28;20233;-82
2022/02/24 11:16:22;;;;;;;6.70;1.35;;;11.20;99.90;;;;;;5053175;28;20182;-82
2022/02/24 11:18:48;;;;;;;12.05;1.50;;;11.20;99.90;;;;;;5053467;28;20160;-83
2022/02/24 11:21:16;;;;;;;5.15;1.45;;;11.10;99.90;;;;;;5054519;28;20171;-82
2022/02/24 11:23:43;;;;;;;10.43;1.88;;;11.20;99.90;;;;;;5068792;28;20214;-84
2022/02/24 11:26:21;;;;;;;3.90;1.10;;;11.20;99.90;;;;;;5078635;28;20326;-83
2022/02/24 11:29:02;;;;;;;4.32;1.13;;;11.20;99.90;;;;;;5060958;28;20525;-83
2022/02/24 11:31:43;;;;;;;8.02;1.42;;;11.40;99.90;;;;;;5055408;28;20736;-85
2022/02/24 11:34:10;;;;;;;7.03;1.73;;;11.70;99.90;;;;;;5054261;28;20183;-83
2022/02/24 11:36:41;;;;;;;4.25;1.48;;;11.90;99.90;;;;;;5055682;28;20167;-84
2022/02/24 11:39:17;;;;;;;4.93;1.65;;;12.20;99.90;;;;;;5053330;28;20261;-83
2022/02/24 11:41:53;;;;;;;1.00;0.88;;;12.20;99.90;;;;;;5053412;28;20167;-82
2022/02/24 11:44:43;;;;;;;4.80;1.08;;;12.30;99.90;;;;;;5052398;28;20219;-82
2022/02/24 11:47:10;;;;;;;4.78;1.70;;;12.40;99.90;;;;;;5051745;28;20218;-83
2022/02/24 11:50:07;;;;;;;10.10;1.40;;;12.40;99.90;;;;;;5053573;28;20167;-84
2022/02/24 11:52:45;;;;;;;2.42;1.25;;;12.40;99.90;;;;;;5052541;28;20202;-83
2022/02/24 11:55:40;;;;;;;3.55;1.00;;;12.60;99.90;;;;;;5052262;28;20578;-84
2022/02/24 11:58:43;;;;;;;9.00;1.35;;;12.70;99.90;;;;;;5053677;28;20641;-84
2022/02/24 12:01:18;;;;;;;10.82;1.70;;;12.60;99.90;;;;;;5053769;28;20756;-82
2022/02/24 12:03:43;;;;;;;2.47;1.55;;;12.60;99.90;;;;;;5051868;28;20296;-82
2022/02/24 12:06:13;;;;;;;4.22;1.45;;;12.70;99.90;;;;;;5051880;28;20282;-82
2022/02/24 12:09:05;;;;;;;11.30;1.70;;;12.70;99.90;;;;;;5052131;28;20245;-83
2022/02/24 12:11:45;;;;;;;2.55;1.08;;;13.00;99.90;;;;;;5052299;28;20256;-85
2022/02/24 12:14:20;;;;;;;6.35;1.60;;;12.70;99.90;;;;;;5053108;28;20647;-83
2022/02/24 12:17:01;;;;;;;5.00;1.25;;;12.50;99.90;;;;;;5049972;28;20166;-84
2022/02/24 12:19:42;;;;;;;2.67;1.23;;;12.50;99.90;;;;;;5050495;28;20171;-83
2022/02/24 12:22:13;;;;;;;7.55;1.35;;;12.40;99.90;;;;;;5053158;28;20163;-83
2022/02/24 12:24:40;;;;;;;1.30;1.20;;;12.00;99.90;;;;;;5051606;28;20218;-82
2022/02/24 12:27:36;;;;;;;3.20;1.30;;;11.90;99.90;;;;;;5047326;28;20281;-83
2022/02/24 12:30:21;;;;;;;9.18;1.42;;;11.60;99.90;;;;;;5050737;28;20163;-81
2022/02/24 12:33:02;;;;;;;3.05;1.38;;;11.60;99.90;;;;;;5037361;28;20194;-83
2022/02/24 12:35:32;;;;;;;5.43;1.65;;;11.40;99.90;;;;;;5045074;28;20183;-82
2022/02/24 12:37:59;;;;;;;4.68;1.40;;;11.50;99.90;;;;;;5050804;28;20659;-83
2022/02/24 12:40:35;;;;;;;4.25;1.15;;;11.30;99.90;;;;;;5050991;28;20213;-82
2022/02/24 12:43:03;;;;;;;4.93;1.40;;;11.20;99.90;;;;;;5051022;28;20228;-82
2022/02/24 12:45:31;;;;;;;3.50;1.55;;;11.10;99.90;;;;;;5050439;28;20260;-82
2022/02/24 12:47:58;;;;;;;5.90;1.20;;;11.00;99.90;;;;;;5051013;28;20186;-81
2022/02/24 12:50:45;;;;;;;7.68;1.73;;;10.90;99.90;;;;;;5049361;28;20198;-83
2022/02/24 12:53:20;;;;;;;21.42;3.30;;;11.00;99.90;;;;;;5051344;28;20171;-85
2022/02/24 12:55:46;;;;;;;9.98;2.03;;;11.00;99.90;;;;;;5050355;28;20651;-81